sensor_id;sensor_type;location;lat;lon;timestamp;P1;durP1;ratioP1;P2;durP2;ratioP2
38162;SDS011;23977;53.078;18.248;2023-11-21T00:01:02;19.23;;;12.18;;
38162;SDS011;23977;53.078;18.248;2023-11-21T00:03:39;20.80;;;13.00;;
38162;SDS011;23977;53.078;18.248;2023-11-21T00:06:06;20.85;;;13.43;;
38162;SDS011;23977;53.078;18.248;2023-11-21T00:08:35;23.20;;;13.40;;
38162;SDS011;23977;53.078;18.248;2023-11-21T00:11:01;22.30;;;13.85;;
38162;SDS011;23977;53.078;18.248;2023-11-21T00:13:27;20.73;;;13.23;;
38162;SDS011;23977;53.078;18.248;2023-11-21T00:15:52;20.50;;;12.23;;
38162;SDS011;23977;53.078;18.248;2023-11-21T00:18:18;19.95;;;12.65;;
38162;SDS011;23977;53.078;18.248;2023-11-21T00:20:44;18.45;;;11.43;;
38162;SDS011;23977;53.078;18.248;2023-11-21T00:23:11;19.88;;;12.40;;
38162;SDS011;23977;53.078;18.248;2023-11-21T00:25:36;18.08;;;11.52;;
38162;SDS011;23977;53.078;18.248;2023-11-21T00:28:02;19.17;;;11.80;;
38162;SDS011;23977;53.078;18.248;2023-11-21T00:30:28;18.67;;;12.18;;
38162;SDS011;23977;53.078;18.248;2023-11-21T00:32:55;18.65;;;11.45;;
38162;SDS011;23977;53.078;18.248;2023-11-21T00:35:21;20.02;;;12.15;;
38162;SDS011;23977;53.078;18.248;2023-11-21T00:37:46;19.30;;;12.00;;
38162;SDS011;23977;53.078;18.248;2023-11-21T00:40:15;18.20;;;11.23;;
38162;SDS011;23977;53.078;18.248;2023-11-21T00:42:41;20.35;;;12.50;;
38162;SDS011;23977;53.078;18.248;2023-11-21T00:45:07;20.98;;;12.98;;
38162;SDS011;23977;53.078;18.248;2023-11-21T00:47:34;20.30;;;12.82;;
38162;SDS011;23977;53.078;18.248;2023-11-21T00:49:59;20.85;;;13.57;;
38162;SDS011;23977;53.078;18.248;2023-11-21T00:52:25;18.67;;;12.07;;
38162;SDS011;23977;53.078;18.248;2023-11-21T00:54:51;20.33;;;12.35;;
38162;SDS011;23977;53.078;18.248;2023-11-21T00:57:17;20.45;;;13.05;;
38162;SDS011;23977;53.078;18.248;2023-11-21T00:59:42;27.20;;;16.50;;
38162;SDS011;23977;53.078;18.248;2023-11-21T01:02:08;27.02;;;16.52;;
38162;SDS011;23977;53.078;18.248;2023-11-21T01:04:35;28.10;;;16.90;;
38162;SDS011;23977;53.078;18.248;2023-11-21T01:07:01;22.58;;;14.13;;
38162;SDS011;23977;53.078;18.248;2023-11-21T01:09:27;20.83;;;12.60;;
38162;SDS011;23977;53.078;18.248;2023-11-21T01:11:53;19.80;;;11.40;;
38162;SDS011;23977;53.078;18.248;2023-11-21T01:14:19;17.88;;;11.32;;
38162;SDS011;23977;53.078;18.248;2023-11-21T01:16:45;18.02;;;11.30;;
38162;SDS011;23977;53.078;18.248;2023-11-21T01:19:10;18.80;;;11.77;;
38162;SDS011;23977;53.078;18.248;2023-11-21T01:21:36;19.80;;;11.70;;
38162;SDS011;23977;53.078;18.248;2023-11-21T01:24:02;19.27;;;11.18;;
38162;SDS011;23977;53.078;18.248;2023-11-21T01:26:28;20.70;;;12.13;;
38162;SDS011;23977;53.078;18.248;2023-11-21T01:28:54;19.80;;;12.10;;
38162;SDS011;23977;53.078;18.248;2023-11-21T01:31:20;18.58;;;11.27;;
38162;SDS011;23977;53.078;18.248;2023-11-21T01:33:46;18.73;;;11.13;;
38162;SDS011;23977;53.078;18.248;2023-11-21T01:36:12;19.90;;;12.18;;
38162;SDS011;23977;53.078;18.248;2023-11-21T01:38:37;19.42;;;11.85;;
38162;SDS011;23977;53.078;18.248;2023-11-21T01:41:03;18.17;;;11.85;;
38162;SDS011;23977;53.078;18.248;2023-11-21T01:43:30;21.00;;;12.00;;
38162;SDS011;23977;53.078;18.248;2023-11-21T01:45:57;21.73;;;12.10;;
38162;SDS011;23977;53.078;18.248;2023-11-21T01:48:24;17.90;;;11.55;;
38162;SDS011;23977;53.078;18.248;2023-11-21T01:50:51;18.77;;;11.75;;
38162;SDS011;23977;53.078;18.248;2023-11-21T01:53:17;18.23;;;11.55;;
38162;SDS011;23977;53.078;18.248;2023-11-21T01:55:43;21.42;;;13.05;;
38162;SDS011;23977;53.078;18.248;2023-11-21T01:58:10;23.10;;;13.50;;
38162;SDS011;23977;53.078;18.248;2023-11-21T02:00:38;22.52;;;13.27;;
38162;SDS011;23977;53.078;18.248;2023-11-21T02:03:03;21.67;;;12.07;;
38162;SDS011;23977;53.078;18.248;2023-11-21T02:05:29;22.95;;;12.98;;
38162;SDS011;23977;53.078;18.248;2023-11-21T02:07:55;21.77;;;12.68;;
38162;SDS011;23977;53.078;18.248;2023-11-21T02:10:22;21.85;;;13.18;;
38162;SDS011;23977;53.078;18.248;2023-11-21T02:12:48;20.48;;;12.85;;
38162;SDS011;23977;53.078;18.248;2023-11-21T02:15:16;25.23;;;14.30;;
38162;SDS011;23977;53.078;18.248;2023-11-21T02:17:49;25.20;;;14.95;;
38162;SDS011;23977;53.078;18.248;2023-11-21T02:20:17;24.23;;;14.38;;
38162;SDS011;23977;53.078;18.248;2023-11-21T02:22:44;21.52;;;12.48;;
38162;SDS011;23977;53.078;18.248;2023-11-21T02:25:23;20.40;;;11.73;;
38162;SDS011;23977;53.078;18.248;2023-11-21T02:27:50;22.67;;;12.88;;
38162;SDS011;23977;53.078;18.248;2023-11-21T02:30:17;23.50;;;12.90;;
38162;SDS011;23977;53.078;18.248;2023-11-21T02:32:42;24.08;;;13.43;;
38162;SDS011;23977;53.078;18.248;2023-11-21T02:35:08;25.88;;;14.05;;
38162;SDS011;23977;53.078;18.248;2023-11-21T02:37:34;24.52;;;15.20;;
38162;SDS011;23977;53.078;18.248;2023-11-21T02:40:01;29.15;;;16.23;;
38162;SDS011;23977;53.078;18.248;2023-11-21T02:42:29;25.65;;;15.38;;
38162;SDS011;23977;53.078;18.248;2023-11-21T02:44:57;26.15;;;14.93;;
38162;SDS011;23977;53.078;18.248;2023-11-21T02:47:22;27.02;;;16.02;;
38162;SDS011;23977;53.078;18.248;2023-11-21T02:49:49;30.42;;;16.65;;
38162;SDS011;23977;53.078;18.248;2023-11-21T02:52:15;26.23;;;15.45;;
38162;SDS011;23977;53.078;18.248;2023-11-21T02:54:40;25.35;;;14.98;;
38162;SDS011;23977;53.078;18.248;2023-11-21T02:57:06;23.80;;;13.82;;
38162;SDS011;23977;53.078;18.248;2023-11-21T02:59:33;25.90;;;15.65;;
38162;SDS011;23977;53.078;18.248;2023-11-21T03:01:58;25.38;;;15.13;;
38162;SDS011;23977;53.078;18.248;2023-11-21T03:04:24;25.25;;;14.75;;
38162;SDS011;23977;53.078;18.248;2023-11-21T03:06:49;22.73;;;13.50;;
38162;SDS011;23977;53.078;18.248;2023-11-21T03:09:15;24.58;;;13.23;;
38162;SDS011;23977;53.078;18.248;2023-11-21T03:11:41;21.55;;;12.38;;
38162;SDS011;23977;53.078;18.248;2023-11-21T03:14:07;20.60;;;12.48;;
38162;SDS011;23977;53.078;18.248;2023-11-21T03:16:34;21.25;;;12.63;;
38162;SDS011;23977;53.078;18.248;2023-11-21T03:19:00;19.17;;;11.45;;
38162;SDS011;23977;53.078;18.248;2023-11-21T03:21:26;18.55;;;11.38;;
38162;SDS011;23977;53.078;18.248;2023-11-21T03:23:51;21.92;;;13.20;;
38162;SDS011;23977;53.078;18.248;2023-11-21T03:26:18;21.42;;;12.90;;
38162;SDS011;23977;53.078;18.248;2023-11-21T03:28:43;24.35;;;14.70;;
38162;SDS011;23977;53.078;18.248;2023-11-21T03:31:09;24.23;;;14.32;;
38162;SDS011;23977;53.078;18.248;2023-11-21T03:33:35;24.58;;;13.73;;
38162;SDS011;23977;53.078;18.248;2023-11-21T03:36:00;24.92;;;14.88;;
38162;SDS011;23977;53.078;18.248;2023-11-21T03:38:26;25.77;;;14.85;;
38162;SDS011;23977;53.078;18.248;2023-11-21T03:40:52;24.38;;;14.02;;
38162;SDS011;23977;53.078;18.248;2023-11-21T03:43:19;25.73;;;14.23;;
38162;SDS011;23977;53.078;18.248;2023-11-21T03:45:44;24.48;;;13.70;;
38162;SDS011;23977;53.078;18.248;2023-11-21T03:48:10;25.15;;;13.88;;
38162;SDS011;23977;53.078;18.248;2023-11-21T03:50:37;24.08;;;14.60;;
38162;SDS011;23977;53.078;18.248;2023-11-21T03:53:04;26.52;;;15.10;;
38162;SDS011;23977;53.078;18.248;2023-11-21T03:55:29;25.02;;;12.07;;
38162;SDS011;23977;53.078;18.248;2023-11-21T03:57:57;28.55;;;15.13;;
38162;SDS011;23977;53.078;18.248;2023-11-21T04:00:24;27.77;;;15.30;;
38162;SDS011;23977;53.078;18.248;2023-11-21T04:02:52;26.15;;;15.27;;
38162;SDS011;23977;53.078;18.248;2023-11-21T04:05:19;27.17;;;16.25;;
38162;SDS011;23977;53.078;18.248;2023-11-21T04:07:48;32.47;;;17.45;;
38162;SDS011;23977;53.078;18.248;2023-11-21T04:10:14;33.65;;;17.45;;
38162;SDS011;23977;53.078;18.248;2023-11-21T04:12:41;30.85;;;16.88;;
38162;SDS011;23977;53.078;18.248;2023-11-21T04:15:07;25.63;;;15.18;;
38162;SDS011;23977;53.078;18.248;2023-11-21T04:17:34;29.48;;;16.27;;
38162;SDS011;23977;53.078;18.248;2023-11-21T04:20:00;23.63;;;13.60;;
38162;SDS011;23977;53.078;18.248;2023-11-21T04:22:26;27.35;;;14.73;;
38162;SDS011;23977;53.078;18.248;2023-11-21T04:24:51;22.98;;;13.52;;
38162;SDS011;23977;53.078;18.248;2023-11-21T04:27:17;24.10;;;13.23;;
38162;SDS011;23977;53.078;18.248;2023-11-21T04:29:43;26.63;;;14.45;;
38162;SDS011;23977;53.078;18.248;2023-11-21T04:32:09;24.55;;;14.10;;
38162;SDS011;23977;53.078;18.248;2023-11-21T04:34:35;26.55;;;14.98;;
38162;SDS011;23977;53.078;18.248;2023-11-21T04:37:01;24.73;;;14.65;;
38162;SDS011;23977;53.078;18.248;2023-11-21T04:39:28;31.35;;;16.83;;
38162;SDS011;23977;53.078;18.248;2023-11-21T04:41:54;28.88;;;15.15;;
38162;SDS011;23977;53.078;18.248;2023-11-21T04:44:19;22.98;;;13.43;;
38162;SDS011;23977;53.078;18.248;2023-11-21T04:46:45;21.90;;;12.30;;
38162;SDS011;23977;53.078;18.248;2023-11-21T04:49:10;21.73;;;12.60;;
38162;SDS011;23977;53.078;18.248;2023-11-21T04:51:36;22.85;;;13.05;;
38162;SDS011;23977;53.078;18.248;2023-11-21T04:54:02;25.77;;;13.57;;
38162;SDS011;23977;53.078;18.248;2023-11-21T04:56:28;26.42;;;14.55;;
38162;SDS011;23977;53.078;18.248;2023-11-21T04:58:54;24.65;;;14.25;;
38162;SDS011;23977;53.078;18.248;2023-11-21T05:01:20;26.00;;;14.15;;
38162;SDS011;23977;53.078;18.248;2023-11-21T05:07:30;24.77;;;12.93;;
38162;SDS011;23977;53.078;18.248;2023-11-21T05:10:16;24.05;;;12.98;;
38162;SDS011;23977;53.078;18.248;2023-11-21T05:12:45;25.33;;;13.18;;
38162;SDS011;23977;53.078;18.248;2023-11-21T05:15:14;22.40;;;12.70;;
38162;SDS011;23977;53.078;18.248;2023-11-21T05:17:48;26.05;;;14.10;;
38162;SDS011;23977;53.078;18.248;2023-11-21T05:20:32;28.95;;;14.45;;
38162;SDS011;23977;53.078;18.248;2023-11-21T05:23:00;30.50;;;15.45;;
38162;SDS011;23977;53.078;18.248;2023-11-21T05:25:31;24.40;;;13.70;;
38162;SDS011;23977;53.078;18.248;2023-11-21T05:28:17;24.13;;;13.60;;
38162;SDS011;23977;53.078;18.248;2023-11-21T05:31:07;25.52;;;13.70;;
38162;SDS011;23977;53.078;18.248;2023-11-21T05:33:50;24.55;;;13.55;;
38162;SDS011;23977;53.078;18.248;2023-11-21T05:36:32;24.10;;;13.18;;
38162;SDS011;23977;53.078;18.248;2023-11-21T05:39:03;27.63;;;14.02;;
38162;SDS011;23977;53.078;18.248;2023-11-21T05:41:51;23.88;;;13.18;;
38162;SDS011;23977;53.078;18.248;2023-11-21T05:44:22;23.33;;;13.02;;
38162;SDS011;23977;53.078;18.248;2023-11-21T05:47:10;25.17;;;13.55;;
38162;SDS011;23977;53.078;18.248;2023-11-21T05:49:40;24.27;;;13.40;;
38162;SDS011;23977;53.078;18.248;2023-11-21T05:52:20;23.48;;;13.40;;
38162;SDS011;23977;53.078;18.248;2023-11-21T05:54:47;20.77;;;11.27;;
38162;SDS011;23977;53.078;18.248;2023-11-21T05:57:15;24.88;;;12.70;;
38162;SDS011;23977;53.078;18.248;2023-11-21T05:59:43;21.27;;;12.02;;
38162;SDS011;23977;53.078;18.248;2023-11-21T06:02:16;23.80;;;12.20;;
38162;SDS011;23977;53.078;18.248;2023-11-21T06:04:42;25.48;;;13.32;;
38162;SDS011;23977;53.078;18.248;2023-11-21T06:07:08;26.95;;;13.10;;
38162;SDS011;23977;53.078;18.248;2023-11-21T06:09:36;24.73;;;12.88;;
38162;SDS011;23977;53.078;18.248;2023-11-21T06:12:03;25.58;;;13.57;;
38162;SDS011;23977;53.078;18.248;2023-11-21T06:14:44;26.25;;;13.85;;
38162;SDS011;23977;53.078;18.248;2023-11-21T06:17:11;30.90;;;15.27;;
38162;SDS011;23977;53.078;18.248;2023-11-21T06:19:39;37.75;;;18.02;;
38162;SDS011;23977;53.078;18.248;2023-11-21T06:22:08;30.90;;;16.42;;
38162;SDS011;23977;53.078;18.248;2023-11-21T06:24:47;20.73;;;11.45;;
38162;SDS011;23977;53.078;18.248;2023-11-21T06:27:12;20.88;;;11.18;;
38162;SDS011;23977;53.078;18.248;2023-11-21T06:29:41;21.27;;;11.40;;
38162;SDS011;23977;53.078;18.248;2023-11-21T06:32:07;24.77;;;11.98;;
38162;SDS011;23977;53.078;18.248;2023-11-21T06:34:36;23.02;;;12.00;;
38162;SDS011;23977;53.078;18.248;2023-11-21T06:37:02;24.95;;;12.07;;
38162;SDS011;23977;53.078;18.248;2023-11-21T06:39:27;25.00;;;11.90;;
38162;SDS011;23977;53.078;18.248;2023-11-21T06:41:53;23.83;;;12.82;;
38162;SDS011;23977;53.078;18.248;2023-11-21T06:44:20;23.92;;;13.02;;
38162;SDS011;23977;53.078;18.248;2023-11-21T06:46:45;21.70;;;12.05;;
38162;SDS011;23977;53.078;18.248;2023-11-21T06:49:11;21.33;;;11.02;;
38162;SDS011;23977;53.078;18.248;2023-11-21T06:51:37;21.27;;;11.40;;
38162;SDS011;23977;53.078;18.248;2023-11-21T06:54:03;21.05;;;11.15;;
38162;SDS011;23977;53.078;18.248;2023-11-21T06:56:28;21.30;;;11.52;;
38162;SDS011;23977;53.078;18.248;2023-11-21T06:58:54;21.40;;;10.88;;
38162;SDS011;23977;53.078;18.248;2023-11-21T07:01:20;23.60;;;13.02;;
38162;SDS011;23977;53.078;18.248;2023-11-21T07:03:46;26.15;;;14.68;;
38162;SDS011;23977;53.078;18.248;2023-11-21T07:06:12;25.52;;;13.05;;
38162;SDS011;23977;53.078;18.248;2023-11-21T07:08:37;25.75;;;14.18;;
38162;SDS011;23977;53.078;18.248;2023-11-21T07:11:04;23.40;;;12.95;;
38162;SDS011;23977;53.078;18.248;2023-11-21T07:13:31;23.55;;;12.82;;
38162;SDS011;23977;53.078;18.248;2023-11-21T07:16:05;19.38;;;10.85;;
38162;SDS011;23977;53.078;18.248;2023-11-21T07:18:31;17.88;;;10.68;;
38162;SDS011;23977;53.078;18.248;2023-11-21T07:20:57;22.55;;;12.32;;
38162;SDS011;23977;53.078;18.248;2023-11-21T07:23:25;20.65;;;11.20;;
38162;SDS011;23977;53.078;18.248;2023-11-21T07:25:55;20.13;;;10.35;;
38162;SDS011;23977;53.078;18.248;2023-11-21T07:28:21;22.42;;;10.85;;
38162;SDS011;23977;53.078;18.248;2023-11-21T07:30:46;19.05;;;10.80;;
38162;SDS011;23977;53.078;18.248;2023-11-21T07:33:12;20.00;;;10.68;;
38162;SDS011;23977;53.078;18.248;2023-11-21T07:35:38;19.30;;;10.63;;
38162;SDS011;23977;53.078;18.248;2023-11-21T07:38:05;22.00;;;12.63;;
38162;SDS011;23977;53.078;18.248;2023-11-21T07:40:32;19.33;;;11.43;;
38162;SDS011;23977;53.078;18.248;2023-11-21T07:42:58;18.27;;;10.20;;
38162;SDS011;23977;53.078;18.248;2023-11-21T07:45:24;18.95;;;10.57;;
38162;SDS011;23977;53.078;18.248;2023-11-21T07:47:53;21.33;;;11.35;;
38162;SDS011;23977;53.078;18.248;2023-11-21T07:50:20;17.73;;;10.68;;
38162;SDS011;23977;53.078;18.248;2023-11-21T07:52:48;18.25;;;10.40;;
38162;SDS011;23977;53.078;18.248;2023-11-21T07:55:15;19.23;;;10.55;;
38162;SDS011;23977;53.078;18.248;2023-11-21T07:57:41;18.50;;;10.23;;
38162;SDS011;23977;53.078;18.248;2023-11-21T08:00:07;17.80;;;9.30;;
38162;SDS011;23977;53.078;18.248;2023-11-21T08:02:34;15.82;;;9.27;;
38162;SDS011;23977;53.078;18.248;2023-11-21T08:05:00;15.38;;;8.75;;
38162;SDS011;23977;53.078;18.248;2023-11-21T08:07:26;16.25;;;8.80;;
38162;SDS011;23977;53.078;18.248;2023-11-21T08:09:53;14.18;;;8.55;;
38162;SDS011;23977;53.078;18.248;2023-11-21T08:12:19;14.52;;;7.93;;
38162;SDS011;23977;53.078;18.248;2023-11-21T08:14:45;16.55;;;8.63;;
38162;SDS011;23977;53.078;18.248;2023-11-21T08:17:11;15.82;;;8.32;;
38162;SDS011;23977;53.078;18.248;2023-11-21T08:19:37;18.70;;;10.60;;
38162;SDS011;23977;53.078;18.248;2023-11-21T08:22:03;20.75;;;11.27;;
38162;SDS011;23977;53.078;18.248;2023-11-21T08:24:29;17.27;;;10.10;;
38162;SDS011;23977;53.078;18.248;2023-11-21T08:26:55;24.63;;;12.25;;
38162;SDS011;23977;53.078;18.248;2023-11-21T08:29:22;18.35;;;11.10;;
38162;SDS011;23977;53.078;18.248;2023-11-21T08:31:49;15.38;;;9.15;;
38162;SDS011;23977;53.078;18.248;2023-11-21T08:34:15;20.73;;;10.15;;
38162;SDS011;23977;53.078;18.248;2023-11-21T08:36:42;17.88;;;9.55;;
38162;SDS011;23977;53.078;18.248;2023-11-21T08:39:09;18.05;;;9.80;;
38162;SDS011;23977;53.078;18.248;2023-11-21T08:41:37;19.73;;;10.50;;
38162;SDS011;23977;53.078;18.248;2023-11-21T08:44:03;21.08;;;10.82;;
38162;SDS011;23977;53.078;18.248;2023-11-21T08:46:33;17.63;;;10.00;;
38162;SDS011;23977;53.078;18.248;2023-11-21T08:49:02;18.00;;;9.43;;
38162;SDS011;23977;53.078;18.248;2023-11-21T08:51:28;16.25;;;9.23;;
38162;SDS011;23977;53.078;18.248;2023-11-21T08:53:58;17.83;;;10.00;;
38162;SDS011;23977;53.078;18.248;2023-11-21T08:56:27;19.10;;;10.65;;
38162;SDS011;23977;53.078;18.248;2023-11-21T08:58:54;18.85;;;10.40;;
38162;SDS011;23977;53.078;18.248;2023-11-21T09:01:23;18.42;;;9.20;;
38162;SDS011;23977;53.078;18.248;2023-11-21T09:03:50;15.65;;;8.45;;
38162;SDS011;23977;53.078;18.248;2023-11-21T09:06:16;15.85;;;8.57;;
38162;SDS011;23977;53.078;18.248;2023-11-21T09:08:42;16.10;;;8.70;;
38162;SDS011;23977;53.078;18.248;2023-11-21T09:11:09;15.90;;;8.88;;
38162;SDS011;23977;53.078;18.248;2023-11-21T09:13:39;13.85;;;8.23;;
38162;SDS011;23977;53.078;18.248;2023-11-21T09:16:05;16.63;;;8.13;;
38162;SDS011;23977;53.078;18.248;2023-11-21T09:18:31;14.10;;;8.27;;
38162;SDS011;23977;53.078;18.248;2023-11-21T09:20:58;15.20;;;8.55;;
38162;SDS011;23977;53.078;18.248;2023-11-21T09:23:25;13.20;;;7.53;;
38162;SDS011;23977;53.078;18.248;2023-11-21T09:25:55;15.13;;;7.70;;
38162;SDS011;23977;53.078;18.248;2023-11-21T09:28:22;15.23;;;7.63;;
38162;SDS011;23977;53.078;18.248;2023-11-21T09:30:52;13.40;;;8.18;;
38162;SDS011;23977;53.078;18.248;2023-11-21T09:33:18;15.88;;;8.50;;
38162;SDS011;23977;53.078;18.248;2023-11-21T09:35:45;15.32;;;8.57;;
38162;SDS011;23977;53.078;18.248;2023-11-21T09:38:10;15.52;;;8.50;;
38162;SDS011;23977;53.078;18.248;2023-11-21T09:40:37;17.88;;;8.82;;
38162;SDS011;23977;53.078;18.248;2023-11-21T09:43:06;16.20;;;8.90;;
38162;SDS011;23977;53.078;18.248;2023-11-21T09:45:46;15.57;;;8.38;;
38162;SDS011;23977;53.078;18.248;2023-11-21T09:48:13;14.45;;;7.70;;
38162;SDS011;23977;53.078;18.248;2023-11-21T09:50:41;13.65;;;8.10;;
38162;SDS011;23977;53.078;18.248;2023-11-21T09:53:10;13.88;;;8.18;;
38162;SDS011;23977;53.078;18.248;2023-11-21T09:55:44;16.10;;;8.82;;
38162;SDS011;23977;53.078;18.248;2023-11-21T09:58:11;17.48;;;10.05;;
38162;SDS011;23977;53.078;18.248;2023-11-21T10:00:42;21.08;;;12.23;;
38162;SDS011;23977;53.078;18.248;2023-11-21T10:03:11;16.67;;;10.23;;
38162;SDS011;23977;53.078;18.248;2023-11-21T10:05:39;17.30;;;10.35;;
38162;SDS011;23977;53.078;18.248;2023-11-21T10:08:07;19.85;;;10.93;;
38162;SDS011;23977;53.078;18.248;2023-11-21T10:10:36;16.13;;;8.93;;
38162;SDS011;23977;53.078;18.248;2023-11-21T10:13:04;17.75;;;10.15;;
38162;SDS011;23977;53.078;18.248;2023-11-21T10:15:33;18.88;;;10.38;;
38162;SDS011;23977;53.078;18.248;2023-11-21T10:18:01;17.63;;;10.30;;
38162;SDS011;23977;53.078;18.248;2023-11-21T10:20:30;19.38;;;11.63;;
38162;SDS011;23977;53.078;18.248;2023-11-21T10:22:59;15.60;;;9.52;;
38162;SDS011;23977;53.078;18.248;2023-11-21T10:25:29;15.00;;;9.02;;
38162;SDS011;23977;53.078;18.248;2023-11-21T10:28:01;13.23;;;7.57;;
38162;SDS011;23977;53.078;18.248;2023-11-21T10:30:32;14.75;;;8.02;;
38162;SDS011;23977;53.078;18.248;2023-11-21T10:33:02;16.48;;;8.38;;
38162;SDS011;23977;53.078;18.248;2023-11-21T10:35:45;14.27;;;7.93;;
38162;SDS011;23977;53.078;18.248;2023-11-21T10:38:20;17.25;;;9.13;;
38162;SDS011;23977;53.078;18.248;2023-11-21T10:40:49;13.32;;;7.85;;
38162;SDS011;23977;53.078;18.248;2023-11-21T10:43:15;12.90;;;7.85;;
38162;SDS011;23977;53.078;18.248;2023-11-21T10:45:45;14.48;;;7.50;;
38162;SDS011;23977;53.078;18.248;2023-11-21T10:48:12;13.68;;;8.23;;
38162;SDS011;23977;53.078;18.248;2023-11-21T10:50:43;15.40;;;8.07;;
38162;SDS011;23977;53.078;18.248;2023-11-21T10:53:10;15.52;;;8.60;;
38162;SDS011;23977;53.078;18.248;2023-11-21T10:55:37;17.45;;;8.88;;
38162;SDS011;23977;53.078;18.248;2023-11-21T10:58:03;14.93;;;8.88;;
38162;SDS011;23977;53.078;18.248;2023-11-21T11:00:31;12.18;;;6.82;;
38162;SDS011;23977;53.078;18.248;2023-11-21T11:02:58;15.00;;;8.50;;
38162;SDS011;23977;53.078;18.248;2023-11-21T11:05:25;15.63;;;8.27;;
38162;SDS011;23977;53.078;18.248;2023-11-21T11:07:58;16.08;;;9.60;;
38162;SDS011;23977;53.078;18.248;2023-11-21T11:10:28;13.30;;;8.10;;
38162;SDS011;23977;53.078;18.248;2023-11-21T11:12:57;14.15;;;8.35;;
38162;SDS011;23977;53.078;18.248;2023-11-21T11:15:24;16.67;;;8.45;;
38162;SDS011;23977;53.078;18.248;2023-11-21T11:17:52;13.15;;;7.90;;
38162;SDS011;23977;53.078;18.248;2023-11-21T11:20:24;14.60;;;8.32;;
38162;SDS011;23977;53.078;18.248;2023-11-21T11:43:56;15.15;;;8.73;;
38162;SDS011;23977;53.078;18.248;2023-11-21T11:46:45;14.50;;;9.02;;
38162;SDS011;23977;53.078;18.248;2023-11-21T12:11:04;11.10;;;6.43;;
38162;SDS011;23977;53.078;18.248;2023-11-21T12:13:43;13.70;;;7.13;;
38162;SDS011;23977;53.078;18.248;2023-11-21T12:18:51;12.40;;;6.65;;
38162;SDS011;23977;53.078;18.248;2023-11-21T12:21:26;12.48;;;6.85;;
38162;SDS011;23977;53.078;18.248;2023-11-21T21:44:22;10.18;;;5.38;;
38162;SDS011;23977;53.078;18.248;2023-11-21T21:56:43;14.70;;;6.35;;
38162;SDS011;23977;53.078;18.248;2023-11-21T22:32:05;11.30;;;5.75;;
38162;SDS011;23977;53.078;18.248;2023-11-21T22:35:04;12.77;;;6.15;;
38162;SDS011;23977;53.078;18.248;2023-11-21T22:37:52;14.27;;;6.40;;
38162;SDS011;23977;53.078;18.248;2023-11-21T22:40:41;15.45;;;6.55;;
38162;SDS011;23977;53.078;18.248;2023-11-21T22:43:26;14.80;;;6.50;;
38162;SDS011;23977;53.078;18.248;2023-11-21T22:46:20;15.10;;;6.70;;
38162;SDS011;23977;53.078;18.248;2023-11-21T22:57:03;14.70;;;7.32;;
38162;SDS011;23977;53.078;18.248;2023-11-21T22:59:46;14.85;;;7.18;;
38162;SDS011;23977;53.078;18.248;2023-11-21T23:02:33;14.38;;;7.10;;
38162;SDS011;23977;53.078;18.248;2023-11-21T23:05:34;13.77;;;6.68;;
38162;SDS011;23977;53.078;18.248;2023-11-21T23:08:18;16.25;;;7.35;;
38162;SDS011;23977;53.078;18.248;2023-11-21T23:10:56;14.88;;;7.30;;
38162;SDS011;23977;53.078;18.248;2023-11-21T23:13:43;14.80;;;7.03;;
38162;SDS011;23977;53.078;18.248;2023-11-21T23:16:25;16.60;;;7.30;;
38162;SDS011;23977;53.078;18.248;2023-11-21T23:19:07;14.95;;;7.30;;
38162;SDS011;23977;53.078;18.248;2023-11-21T23:21:55;15.25;;;7.32;;
38162;SDS011;23977;53.078;18.248;2023-11-21T23:24:35;16.35;;;7.97;;
38162;SDS011;23977;53.078;18.248;2023-11-21T23:27:29;14.98;;;7.15;;
38162;SDS011;23977;53.078;18.248;2023-11-21T23:30:33;15.45;;;7.43;;
38162;SDS011;23977;53.078;18.248;2023-11-21T23:34:01;14.05;;;6.68;;
38162;SDS011;23977;53.078;18.248;2023-11-21T23:36:58;14.57;;;7.15;;
38162;SDS011;23977;53.078;18.248;2023-11-21T23:39:30;14.82;;;7.13;;
38162;SDS011;23977;53.078;18.248;2023-11-21T23:42:12;15.23;;;7.25;;
38162;SDS011;23977;53.078;18.248;2023-11-21T23:45:05;15.32;;;7.75;;
38162;SDS011;23977;53.078;18.248;2023-11-21T23:47:59;13.73;;;7.32;;
38162;SDS011;23977;53.078;18.248;2023-11-21T23:51:41;14.15;;;7.40;;
38162;SDS011;23977;53.078;18.248;2023-11-21T23:54:22;16.13;;;7.97;;
38162;SDS011;23977;53.078;18.248;2023-11-21T23:57:21;14.38;;;7.50;;
38162;SDS011;23977;53.078;18.248;2023-11-21T23:59:53;14.73;;;7.70;;
